sensor_id;sensor_type;location;lat;lon;timestamp;P1;durP1;ratioP1;P2;durP2;ratioP2
30681;SDS011;17439;48.092;11.842;2023-01-24T00:00:17;47.53;;;14.75;;
30681;SDS011;17439;48.092;11.842;2023-01-24T00:02:44;38.53;;;13.85;;
30681;SDS011;17439;48.092;11.842;2023-01-24T00:05:10;55.17;;;17.95;;
30681;SDS011;17439;48.092;11.842;2023-01-24T00:07:37;50.95;;;17.70;;
30681;SDS011;17439;48.092;11.842;2023-01-24T00:10:04;59.33;;;18.70;;
30681;SDS011;17439;48.092;11.842;2023-01-24T00:12:31;44.28;;;15.23;;
30681;SDS011;17439;48.092;11.842;2023-01-24T00:14:57;49.90;;;17.40;;
30681;SDS011;17439;48.092;11.842;2023-01-24T00:17:24;55.20;;;18.17;;
30681;SDS011;17439;48.092;11.842;2023-01-24T00:19:51;54.92;;;17.67;;
30681;SDS011;17439;48.092;11.842;2023-01-24T00:22:17;49.42;;;17.23;;
30681;SDS011;17439;48.092;11.842;2023-01-24T00:24:44;54.53;;;19.02;;
30681;SDS011;17439;48.092;11.842;2023-01-24T00:27:10;50.22;;;17.23;;
30681;SDS011;17439;48.092;11.842;2023-01-24T00:29:37;50.45;;;16.65;;
30681;SDS011;17439;48.092;11.842;2023-01-24T00:32:04;53.72;;;16.77;;
30681;SDS011;17439;48.092;11.842;2023-01-24T00:34:31;65.72;;;21.63;;
30681;SDS011;17439;48.092;11.842;2023-01-24T00:36:57;66.68;;;21.55;;
30681;SDS011;17439;48.092;11.842;2023-01-24T00:39:24;62.65;;;17.75;;
30681;SDS011;17439;48.092;11.842;2023-01-24T00:44:18;53.03;;;19.02;;
30681;SDS011;17439;48.092;11.842;2023-01-24T00:46:45;61.85;;;22.88;;
30681;SDS011;17439;48.092;11.842;2023-01-24T00:49:12;53.03;;;18.27;;
30681;SDS011;17439;48.092;11.842;2023-01-24T00:51:38;43.17;;;14.60;;
30681;SDS011;17439;48.092;11.842;2023-01-24T00:54:05;47.70;;;15.82;;
30681;SDS011;17439;48.092;11.842;2023-01-24T00:56:31;59.95;;;21.27;;
30681;SDS011;17439;48.092;11.842;2023-01-24T00:58:58;72.38;;;23.42;;
30681;SDS011;17439;48.092;11.842;2023-01-24T01:01:24;55.65;;;16.70;;
30681;SDS011;17439;48.092;11.842;2023-01-24T01:03:55;62.58;;;19.33;;
30681;SDS011;17439;48.092;11.842;2023-01-24T01:06:23;46.67;;;16.80;;
30681;SDS011;17439;48.092;11.842;2023-01-24T01:08:51;57.58;;;18.48;;
30681;SDS011;17439;48.092;11.842;2023-01-24T01:11:18;59.78;;;20.08;;
30681;SDS011;17439;48.092;11.842;2023-01-24T01:13:45;58.28;;;19.17;;
30681;SDS011;17439;48.092;11.842;2023-01-24T01:16:13;59.85;;;19.80;;
30681;SDS011;17439;48.092;11.842;2023-01-24T01:18:42;61.15;;;18.55;;
30681;SDS011;17439;48.092;11.842;2023-01-24T01:21:10;58.45;;;19.60;;
30681;SDS011;17439;48.092;11.842;2023-01-24T01:23:42;63.75;;;20.05;;
30681;SDS011;17439;48.092;11.842;2023-01-24T01:26:12;50.63;;;18.52;;
30681;SDS011;17439;48.092;11.842;2023-01-24T01:28:41;44.97;;;16.10;;
30681;SDS011;17439;48.092;11.842;2023-01-24T01:31:08;52.08;;;17.15;;
30681;SDS011;17439;48.092;11.842;2023-01-24T01:33:34;67.20;;;20.98;;
30681;SDS011;17439;48.092;11.842;2023-01-24T01:36:01;54.38;;;18.23;;
30681;SDS011;17439;48.092;11.842;2023-01-24T01:38:28;56.90;;;19.23;;
30681;SDS011;17439;48.092;11.842;2023-01-24T01:40:55;56.83;;;18.52;;
30681;SDS011;17439;48.092;11.842;2023-01-24T01:43:23;55.63;;;18.47;;
30681;SDS011;17439;48.092;11.842;2023-01-24T01:45:53;48.72;;;16.35;;
30681;SDS011;17439;48.092;11.842;2023-01-24T01:48:35;54.28;;;13.85;;
30681;SDS011;17439;48.092;11.842;2023-01-24T01:51:25;44.85;;;14.75;;
30681;SDS011;17439;48.092;11.842;2023-01-24T01:56:39;57.55;;;17.77;;
30681;SDS011;17439;48.092;11.842;2023-01-24T01:59:10;67.22;;;17.35;;
30681;SDS011;17439;48.092;11.842;2023-01-24T02:01:41;52.47;;;17.02;;
30681;SDS011;17439;48.092;11.842;2023-01-24T02:04:19;56.88;;;19.52;;
30681;SDS011;17439;48.092;11.842;2023-01-24T02:06:50;52.15;;;17.35;;
30681;SDS011;17439;48.092;11.842;2023-01-24T02:09:23;59.00;;;19.38;;
30681;SDS011;17439;48.092;11.842;2023-01-24T02:11:53;56.38;;;17.83;;
30681;SDS011;17439;48.092;11.842;2023-01-24T02:14:24;53.00;;;18.50;;
30681;SDS011;17439;48.092;11.842;2023-01-24T02:16:53;49.30;;;16.52;;
30681;SDS011;17439;48.092;11.842;2023-01-24T02:19:23;49.92;;;16.98;;
30681;SDS011;17439;48.092;11.842;2023-01-24T02:22:07;67.22;;;18.45;;
30681;SDS011;17439;48.092;11.842;2023-01-24T02:24:41;53.63;;;15.55;;
30681;SDS011;17439;48.092;11.842;2023-01-24T02:27:14;62.53;;;20.00;;
30681;SDS011;17439;48.092;11.842;2023-01-24T02:29:41;55.25;;;19.73;;
30681;SDS011;17439;48.092;11.842;2023-01-24T02:32:08;62.63;;;17.75;;
30681;SDS011;17439;48.092;11.842;2023-01-24T02:34:34;58.33;;;19.15;;
30681;SDS011;17439;48.092;11.842;2023-01-24T02:37:05;70.90;;;21.98;;
30681;SDS011;17439;48.092;11.842;2023-01-24T02:39:50;57.78;;;21.15;;
30681;SDS011;17439;48.092;11.842;2023-01-24T02:42:23;61.70;;;20.80;;
30681;SDS011;17439;48.092;11.842;2023-01-24T02:47:36;64.30;;;19.55;;
30681;SDS011;17439;48.092;11.842;2023-01-24T02:50:06;57.70;;;17.58;;
30681;SDS011;17439;48.092;11.842;2023-01-24T02:52:33;55.60;;;17.20;;
30681;SDS011;17439;48.092;11.842;2023-01-24T02:55:01;65.97;;;20.55;;
30681;SDS011;17439;48.092;11.842;2023-01-24T02:57:27;60.83;;;21.42;;
30681;SDS011;17439;48.092;11.842;2023-01-24T02:59:54;67.57;;;19.88;;
30681;SDS011;17439;48.092;11.842;2023-01-24T03:02:20;52.08;;;15.95;;
30681;SDS011;17439;48.092;11.842;2023-01-24T03:04:48;62.05;;;19.48;;
30681;SDS011;17439;48.092;11.842;2023-01-24T03:07:15;55.97;;;17.63;;
30681;SDS011;17439;48.092;11.842;2023-01-24T03:09:48;68.53;;;21.42;;
30681;SDS011;17439;48.092;11.842;2023-01-24T03:12:19;63.30;;;21.45;;
30681;SDS011;17439;48.092;11.842;2023-01-24T03:14:46;55.70;;;15.40;;
30681;SDS011;17439;48.092;11.842;2023-01-24T03:17:13;49.85;;;17.30;;
30681;SDS011;17439;48.092;11.842;2023-01-24T03:19:40;53.33;;;18.88;;
30681;SDS011;17439;48.092;11.842;2023-01-24T03:22:06;69.05;;;21.88;;
30681;SDS011;17439;48.092;11.842;2023-01-24T03:24:33;53.70;;;18.15;;
30681;SDS011;17439;48.092;11.842;2023-01-24T03:27:00;68.72;;;22.20;;
30681;SDS011;17439;48.092;11.842;2023-01-24T03:29:27;62.55;;;18.67;;
30681;SDS011;17439;48.092;11.842;2023-01-24T03:31:54;76.35;;;23.55;;
30681;SDS011;17439;48.092;11.842;2023-01-24T03:34:24;52.13;;;17.40;;
30681;SDS011;17439;48.092;11.842;2023-01-24T03:36:51;58.10;;;18.17;;
30681;SDS011;17439;48.092;11.842;2023-01-24T03:39:17;60.88;;;18.80;;
30681;SDS011;17439;48.092;11.842;2023-01-24T03:41:44;58.35;;;18.67;;
30681;SDS011;17439;48.092;11.842;2023-01-24T03:44:10;53.72;;;19.10;;
30681;SDS011;17439;48.092;11.842;2023-01-24T03:46:37;51.78;;;16.27;;
30681;SDS011;17439;48.092;11.842;2023-01-24T03:49:04;44.75;;;16.13;;
30681;SDS011;17439;48.092;11.842;2023-01-24T03:51:34;51.75;;;17.08;;
30681;SDS011;17439;48.092;11.842;2023-01-24T03:54:01;82.20;;;18.92;;
30681;SDS011;17439;48.092;11.842;2023-01-24T03:56:35;58.53;;;17.67;;
30681;SDS011;17439;48.092;11.842;2023-01-24T03:59:04;56.40;;;18.27;;
30681;SDS011;17439;48.092;11.842;2023-01-24T04:01:34;54.00;;;16.52;;
30681;SDS011;17439;48.092;11.842;2023-01-24T04:04:06;52.05;;;17.63;;
30681;SDS011;17439;48.092;11.842;2023-01-24T04:06:33;77.63;;;21.87;;
30681;SDS011;17439;48.092;11.842;2023-01-24T04:09:02;60.50;;;20.77;;
30681;SDS011;17439;48.092;11.842;2023-01-24T04:11:31;45.83;;;15.60;;
30681;SDS011;17439;48.092;11.842;2023-01-24T04:14:11;51.83;;;16.70;;
30681;SDS011;17439;48.092;11.842;2023-01-24T04:16:52;62.55;;;19.27;;
30681;SDS011;17439;48.092;11.842;2023-01-24T04:19:23;60.58;;;17.40;;
30681;SDS011;17439;48.092;11.842;2023-01-24T04:21:50;52.25;;;16.13;;
30681;SDS011;17439;48.092;11.842;2023-01-24T04:24:17;58.22;;;20.90;;
30681;SDS011;17439;48.092;11.842;2023-01-24T04:26:44;66.35;;;19.30;;
30681;SDS011;17439;48.092;11.842;2023-01-24T04:29:17;49.92;;;16.60;;
30681;SDS011;17439;48.092;11.842;2023-01-24T04:31:46;57.92;;;17.83;;
30681;SDS011;17439;48.092;11.842;2023-01-24T04:34:32;66.20;;;18.88;;
30681;SDS011;17439;48.092;11.842;2023-01-24T04:36:59;55.92;;;18.77;;
30681;SDS011;17439;48.092;11.842;2023-01-24T04:39:26;50.92;;;15.45;;
30681;SDS011;17439;48.092;11.842;2023-01-24T04:42:03;45.47;;;14.05;;
30681;SDS011;17439;48.092;11.842;2023-01-24T04:44:30;57.85;;;18.73;;
30681;SDS011;17439;48.092;11.842;2023-01-24T04:46:56;44.25;;;14.63;;
30681;SDS011;17439;48.092;11.842;2023-01-24T04:49:23;53.20;;;17.88;;
30681;SDS011;17439;48.092;11.842;2023-01-24T04:51:51;55.83;;;18.35;;
30681;SDS011;17439;48.092;11.842;2023-01-24T04:54:22;52.78;;;17.35;;
30681;SDS011;17439;48.092;11.842;2023-01-24T04:56:51;60.65;;;19.27;;
30681;SDS011;17439;48.092;11.842;2023-01-24T04:59:18;58.47;;;16.48;;
30681;SDS011;17439;48.092;11.842;2023-01-24T05:04:35;51.75;;;16.02;;
30681;SDS011;17439;48.092;11.842;2023-01-24T05:07:03;46.20;;;14.75;;
30681;SDS011;17439;48.092;11.842;2023-01-24T05:09:31;38.75;;;12.85;;
30681;SDS011;17439;48.092;11.842;2023-01-24T05:12:02;46.85;;;16.08;;
30681;SDS011;17439;48.092;11.842;2023-01-24T05:14:29;57.65;;;19.23;;
30681;SDS011;17439;48.092;11.842;2023-01-24T05:16:56;52.80;;;16.70;;
30681;SDS011;17439;48.092;11.842;2023-01-24T05:19:23;44.35;;;14.15;;
30681;SDS011;17439;48.092;11.842;2023-01-24T05:21:50;51.13;;;19.27;;
30681;SDS011;17439;48.092;11.842;2023-01-24T05:24:17;45.50;;;14.35;;
30681;SDS011;17439;48.092;11.842;2023-01-24T05:26:44;47.25;;;14.95;;
30681;SDS011;17439;48.092;11.842;2023-01-24T05:29:14;51.55;;;15.10;;
30681;SDS011;17439;48.092;11.842;2023-01-24T05:31:45;45.38;;;13.93;;
30681;SDS011;17439;48.092;11.842;2023-01-24T05:34:12;52.53;;;16.20;;
30681;SDS011;17439;48.092;11.842;2023-01-24T05:36:39;48.72;;;14.60;;
30681;SDS011;17439;48.092;11.842;2023-01-24T05:39:06;49.28;;;15.15;;
30681;SDS011;17439;48.092;11.842;2023-01-24T05:41:33;48.97;;;15.00;;
30681;SDS011;17439;48.092;11.842;2023-01-24T05:44:01;37.85;;;12.52;;
30681;SDS011;17439;48.092;11.842;2023-01-24T05:46:34;34.53;;;11.35;;
30681;SDS011;17439;48.092;11.842;2023-01-24T05:49:09;48.30;;;16.63;;
30681;SDS011;17439;48.092;11.842;2023-01-24T05:51:35;41.92;;;15.43;;
30681;SDS011;17439;48.092;11.842;2023-01-24T05:54:03;44.88;;;15.63;;
30681;SDS011;17439;48.092;11.842;2023-01-24T05:56:50;32.63;;;10.88;;
30681;SDS011;17439;48.092;11.842;2023-01-24T05:59:16;37.40;;;12.10;;
30681;SDS011;17439;48.092;11.842;2023-01-24T06:01:43;44.45;;;14.00;;
30681;SDS011;17439;48.092;11.842;2023-01-24T06:04:09;37.33;;;12.15;;
30681;SDS011;17439;48.092;11.842;2023-01-24T06:06:38;39.33;;;13.82;;
30681;SDS011;17439;48.092;11.842;2023-01-24T06:09:04;46.47;;;15.25;;
30681;SDS011;17439;48.092;11.842;2023-01-24T06:11:31;34.03;;;12.45;;
30681;SDS011;17439;48.092;11.842;2023-01-24T06:14:05;34.97;;;12.20;;
30681;SDS011;17439;48.092;11.842;2023-01-24T06:16:31;28.42;;;10.10;;
30681;SDS011;17439;48.092;11.842;2023-01-24T06:18:58;41.92;;;14.57;;
30681;SDS011;17439;48.092;11.842;2023-01-24T06:21:44;43.47;;;14.60;;
30681;SDS011;17439;48.092;11.842;2023-01-24T06:24:26;29.80;;;11.40;;
30681;SDS011;17439;48.092;11.842;2023-01-24T06:27:28;43.53;;;14.77;;
30681;SDS011;17439;48.092;11.842;2023-01-24T06:29:54;30.70;;;10.18;;
30681;SDS011;17439;48.092;11.842;2023-01-24T06:35:07;47.30;;;13.80;;
30681;SDS011;17439;48.092;11.842;2023-01-24T06:40:17;42.70;;;12.65;;
30681;SDS011;17439;48.092;11.842;2023-01-24T06:42:48;36.85;;;13.15;;
30681;SDS011;17439;48.092;11.842;2023-01-24T06:45:15;39.90;;;14.75;;
30681;SDS011;17439;48.092;11.842;2023-01-24T06:47:42;38.28;;;12.10;;
30681;SDS011;17439;48.092;11.842;2023-01-24T06:50:13;43.20;;;15.45;;
30681;SDS011;17439;48.092;11.842;2023-01-24T06:52:45;36.58;;;12.07;;
30681;SDS011;17439;48.092;11.842;2023-01-24T06:55:13;47.42;;;13.35;;
30681;SDS011;17439;48.092;11.842;2023-01-24T06:57:40;44.90;;;14.90;;
30681;SDS011;17439;48.092;11.842;2023-01-24T07:00:07;55.58;;;17.25;;
30681;SDS011;17439;48.092;11.842;2023-01-24T07:02:34;55.70;;;18.00;;
30681;SDS011;17439;48.092;11.842;2023-01-24T07:05:01;57.90;;;18.88;;
30681;SDS011;17439;48.092;11.842;2023-01-24T07:07:27;63.17;;;17.52;;
30681;SDS011;17439;48.092;11.842;2023-01-24T07:09:54;51.22;;;17.95;;
30681;SDS011;17439;48.092;11.842;2023-01-24T07:12:20;44.40;;;12.88;;
30681;SDS011;17439;48.092;11.842;2023-01-24T07:14:47;64.85;;;19.90;;
30681;SDS011;17439;48.092;11.842;2023-01-24T07:17:13;52.97;;;16.35;;
30681;SDS011;17439;48.092;11.842;2023-01-24T07:19:40;59.63;;;17.10;;
30681;SDS011;17439;48.092;11.842;2023-01-24T07:22:13;53.00;;;16.92;;
30681;SDS011;17439;48.092;11.842;2023-01-24T07:24:40;59.83;;;20.00;;
30681;SDS011;17439;48.092;11.842;2023-01-24T07:27:07;56.42;;;20.42;;
30681;SDS011;17439;48.092;11.842;2023-01-24T07:29:34;80.22;;;25.35;;
30681;SDS011;17439;48.092;11.842;2023-01-24T07:32:00;67.30;;;21.70;;
30681;SDS011;17439;48.092;11.842;2023-01-24T07:34:27;61.60;;;18.33;;
30681;SDS011;17439;48.092;11.842;2023-01-24T07:36:53;50.65;;;16.45;;
30681;SDS011;17439;48.092;11.842;2023-01-24T07:39:20;63.03;;;18.58;;
30681;SDS011;17439;48.092;11.842;2023-01-24T07:41:46;61.38;;;19.85;;
30681;SDS011;17439;48.092;11.842;2023-01-24T07:44:13;55.67;;;18.83;;
30681;SDS011;17439;48.092;11.842;2023-01-24T07:46:40;52.10;;;17.40;;
30681;SDS011;17439;48.092;11.842;2023-01-24T07:49:06;72.32;;;20.60;;
30681;SDS011;17439;48.092;11.842;2023-01-24T07:51:33;69.68;;;21.02;;
30681;SDS011;17439;48.092;11.842;2023-01-24T07:54:00;75.32;;;23.75;;
30681;SDS011;17439;48.092;11.842;2023-01-24T07:56:26;60.20;;;18.38;;
30681;SDS011;17439;48.092;11.842;2023-01-24T07:58:53;59.30;;;19.92;;
30681;SDS011;17439;48.092;11.842;2023-01-24T08:01:20;59.53;;;19.30;;
30681;SDS011;17439;48.092;11.842;2023-01-24T08:03:48;58.90;;;17.58;;
30681;SDS011;17439;48.092;11.842;2023-01-24T08:06:15;69.75;;;20.45;;
30681;SDS011;17439;48.092;11.842;2023-01-24T08:08:42;64.60;;;20.60;;
30681;SDS011;17439;48.092;11.842;2023-01-24T08:11:09;57.58;;;20.63;;
30681;SDS011;17439;48.092;11.842;2023-01-24T08:13:35;48.35;;;16.52;;
30681;SDS011;17439;48.092;11.842;2023-01-24T08:16:02;52.05;;;16.95;;
30681;SDS011;17439;48.092;11.842;2023-01-24T08:18:29;54.03;;;17.40;;
30681;SDS011;17439;48.092;11.842;2023-01-24T08:20:56;65.68;;;20.25;;
30681;SDS011;17439;48.092;11.842;2023-01-24T08:23:23;62.33;;;18.80;;
30681;SDS011;17439;48.092;11.842;2023-01-24T08:25:49;66.45;;;20.63;;
30681;SDS011;17439;48.092;11.842;2023-01-24T08:28:16;51.88;;;16.83;;
30681;SDS011;17439;48.092;11.842;2023-01-24T08:30:43;55.80;;;17.58;;
30681;SDS011;17439;48.092;11.842;2023-01-24T08:33:10;44.55;;;16.45;;
30681;SDS011;17439;48.092;11.842;2023-01-24T08:35:37;57.47;;;18.50;;
30681;SDS011;17439;48.092;11.842;2023-01-24T08:38:04;46.03;;;17.52;;
30681;SDS011;17439;48.092;11.842;2023-01-24T08:40:31;50.88;;;17.65;;
30681;SDS011;17439;48.092;11.842;2023-01-24T08:43:09;56.80;;;18.10;;
30681;SDS011;17439;48.092;11.842;2023-01-24T08:45:36;56.35;;;18.27;;
30681;SDS011;17439;48.092;11.842;2023-01-24T08:48:03;61.83;;;18.08;;
30681;SDS011;17439;48.092;11.842;2023-01-24T08:50:30;47.65;;;16.75;;
30681;SDS011;17439;48.092;11.842;2023-01-24T08:52:57;52.58;;;19.30;;
30681;SDS011;17439;48.092;11.842;2023-01-24T08:55:23;64.25;;;20.35;;
30681;SDS011;17439;48.092;11.842;2023-01-24T08:57:50;49.47;;;16.73;;
30681;SDS011;17439;48.092;11.842;2023-01-24T09:00:17;52.42;;;17.88;;
30681;SDS011;17439;48.092;11.842;2023-01-24T09:02:44;56.05;;;17.38;;
30681;SDS011;17439;48.092;11.842;2023-01-24T09:05:10;58.20;;;18.08;;
30681;SDS011;17439;48.092;11.842;2023-01-24T09:07:37;56.53;;;19.90;;
30681;SDS011;17439;48.092;11.842;2023-01-24T09:10:03;49.78;;;15.85;;
30681;SDS011;17439;48.092;11.842;2023-01-24T09:12:30;66.57;;;21.80;;
30681;SDS011;17439;48.092;11.842;2023-01-24T09:14:57;74.18;;;22.50;;
30681;SDS011;17439;48.092;11.842;2023-01-24T09:17:24;55.67;;;18.65;;
30681;SDS011;17439;48.092;11.842;2023-01-24T09:19:51;62.25;;;21.00;;
30681;SDS011;17439;48.092;11.842;2023-01-24T09:22:18;55.30;;;18.55;;
30681;SDS011;17439;48.092;11.842;2023-01-24T09:24:46;53.22;;;15.85;;
30681;SDS011;17439;48.092;11.842;2023-01-24T09:27:12;50.13;;;18.65;;
30681;SDS011;17439;48.092;11.842;2023-01-24T09:29:39;61.15;;;20.15;;
30681;SDS011;17439;48.092;11.842;2023-01-24T09:32:05;81.53;;;25.02;;
30681;SDS011;17439;48.092;11.842;2023-01-24T09:34:32;61.83;;;20.67;;
30681;SDS011;17439;48.092;11.842;2023-01-24T09:36:58;48.90;;;16.98;;
30681;SDS011;17439;48.092;11.842;2023-01-24T09:39:25;76.40;;;26.23;;
30681;SDS011;17439;48.092;11.842;2023-01-24T09:44:39;66.95;;;21.70;;
30681;SDS011;17439;48.092;11.842;2023-01-24T09:47:18;58.22;;;17.67;;
30681;SDS011;17439;48.092;11.842;2023-01-24T09:49:59;60.65;;;22.80;;
30681;SDS011;17439;48.092;11.842;2023-01-24T09:52:31;67.70;;;22.83;;
30681;SDS011;17439;48.092;11.842;2023-01-24T09:55:03;57.08;;;18.80;;
30681;SDS011;17439;48.092;11.842;2023-01-24T09:57:45;60.20;;;20.67;;
30681;SDS011;17439;48.092;11.842;2023-01-24T10:00:48;55.03;;;20.67;;
30681;SDS011;17439;48.092;11.842;2023-01-24T10:03:11;49.05;;;16.80;;
30681;SDS011;17439;48.092;11.842;2023-01-24T10:05:44;57.20;;;18.02;;
30681;SDS011;17439;48.092;11.842;2023-01-24T10:08:17;66.22;;;21.70;;
30681;SDS011;17439;48.092;11.842;2023-01-24T10:10:58;57.70;;;18.70;;
30681;SDS011;17439;48.092;11.842;2023-01-24T10:13:42;43.65;;;14.48;;
30681;SDS011;17439;48.092;11.842;2023-01-24T10:19:10;56.35;;;20.55;;
30681;SDS011;17439;48.092;11.842;2023-01-24T10:24:52;70.22;;;22.83;;
30681;SDS011;17439;48.092;11.842;2023-01-24T10:27:30;56.23;;;20.53;;
30681;SDS011;17439;48.092;11.842;2023-01-24T10:30:05;59.25;;;18.80;;
30681;SDS011;17439;48.092;11.842;2023-01-24T10:32:40;67.40;;;22.05;;
30681;SDS011;17439;48.092;11.842;2023-01-24T10:35:12;54.58;;;19.88;;
30681;SDS011;17439;48.092;11.842;2023-01-24T10:37:42;65.10;;;18.95;;
30681;SDS011;17439;48.092;11.842;2023-01-24T10:40:12;60.53;;;19.90;;
30681;SDS011;17439;48.092;11.842;2023-01-24T10:42:42;71.40;;;22.77;;
30681;SDS011;17439;48.092;11.842;2023-01-24T10:45:19;54.05;;;18.73;;
30681;SDS011;17439;48.092;11.842;2023-01-24T10:47:49;54.60;;;17.85;;
30681;SDS011;17439;48.092;11.842;2023-01-24T10:50:21;38.15;;;13.38;;
30681;SDS011;17439;48.092;11.842;2023-01-24T10:52:47;54.45;;;19.40;;
30681;SDS011;17439;48.092;11.842;2023-01-24T10:55:31;59.17;;;21.45;;
30681;SDS011;17439;48.092;11.842;2023-01-24T10:57:59;49.13;;;17.63;;
30681;SDS011;17439;48.092;11.842;2023-01-24T11:03:01;57.13;;;20.55;;
30681;SDS011;17439;48.092;11.842;2023-01-24T11:05:46;63.15;;;22.55;;
30681;SDS011;17439;48.092;11.842;2023-01-24T11:08:18;52.35;;;19.13;;
30681;SDS011;17439;48.092;11.842;2023-01-24T11:10:54;73.82;;;23.60;;
30681;SDS011;17439;48.092;11.842;2023-01-24T11:13:35;70.32;;;22.67;;
30681;SDS011;17439;48.092;11.842;2023-01-24T11:18:58;59.88;;;22.88;;
30681;SDS011;17439;48.092;11.842;2023-01-24T11:21:32;65.43;;;20.42;;
30681;SDS011;17439;48.092;11.842;2023-01-24T11:26:35;61.95;;;19.08;;
30681;SDS011;17439;48.092;11.842;2023-01-24T11:29:14;52.42;;;19.63;;
30681;SDS011;17439;48.092;11.842;2023-01-24T11:31:43;64.20;;;22.35;;
30681;SDS011;17439;48.092;11.842;2023-01-24T11:34:19;55.13;;;20.98;;
30681;SDS011;17439;48.092;11.842;2023-01-24T11:39:56;57.78;;;21.02;;
30681;SDS011;17439;48.092;11.842;2023-01-24T11:45:18;64.82;;;22.15;;
30681;SDS011;17439;48.092;11.842;2023-01-24T11:47:59;50.47;;;20.53;;
30681;SDS011;17439;48.092;11.842;2023-01-24T11:53:13;58.03;;;20.23;;
30681;SDS011;17439;48.092;11.842;2023-01-24T11:56:12;63.72;;;22.13;;
30681;SDS011;17439;48.092;11.842;2023-01-24T12:04:24;49.45;;;17.83;;
30681;SDS011;17439;48.092;11.842;2023-01-24T12:09:50;57.17;;;19.50;;
30681;SDS011;17439;48.092;11.842;2023-01-24T12:13:01;59.13;;;18.92;;
30681;SDS011;17439;48.092;11.842;2023-01-24T12:18:28;62.22;;;21.75;;
30681;SDS011;17439;48.092;11.842;2023-01-24T12:21:08;57.55;;;19.92;;
30681;SDS011;17439;48.092;11.842;2023-01-24T12:26:26;47.35;;;18.80;;
30681;SDS011;17439;48.092;11.842;2023-01-24T12:31:42;51.92;;;19.85;;
30681;SDS011;17439;48.092;11.842;2023-01-24T12:34:28;59.58;;;21.63;;
30681;SDS011;17439;48.092;11.842;2023-01-24T12:39:54;60.80;;;19.88;;
30681;SDS011;17439;48.092;11.842;2023-01-24T12:45:26;46.70;;;18.38;;
30681;SDS011;17439;48.092;11.842;2023-01-24T12:48:11;63.70;;;21.42;;
30681;SDS011;17439;48.092;11.842;2023-01-24T12:50:51;53.53;;;21.45;;
30681;SDS011;17439;48.092;11.842;2023-01-24T12:53:27;60.80;;;20.00;;
30681;SDS011;17439;48.092;11.842;2023-01-24T12:56:02;51.10;;;18.48;;
30681;SDS011;17439;48.092;11.842;2023-01-24T12:58:39;47.42;;;17.15;;
30681;SDS011;17439;48.092;11.842;2023-01-24T13:06:33;52.35;;;18.55;;
30681;SDS011;17439;48.092;11.842;2023-01-24T13:12:10;52.17;;;18.95;;
30681;SDS011;17439;48.092;11.842;2023-01-24T13:20:40;69.90;;;23.05;;
30681;SDS011;17439;48.092;11.842;2023-01-24T13:31:35;51.55;;;19.55;;
30681;SDS011;17439;48.092;11.842;2023-01-24T13:34:20;58.17;;;20.27;;
30681;SDS011;17439;48.092;11.842;2023-01-24T13:36:52;59.28;;;21.88;;
30681;SDS011;17439;48.092;11.842;2023-01-24T13:39:35;58.05;;;20.88;;
30681;SDS011;17439;48.092;11.842;2023-01-24T13:42:17;64.28;;;23.23;;
30681;SDS011;17439;48.092;11.842;2023-01-24T13:44:47;54.38;;;19.80;;
30681;SDS011;17439;48.092;11.842;2023-01-24T13:55:00;70.93;;;24.23;;
30681;SDS011;17439;48.092;11.842;2023-01-24T13:57:30;66.10;;;22.02;;
30681;SDS011;17439;48.092;11.842;2023-01-24T14:05:32;67.90;;;23.05;;
30681;SDS011;17439;48.092;11.842;2023-01-24T14:08:01;79.20;;;24.98;;
30681;SDS011;17439;48.092;11.842;2023-01-24T14:13:04;63.60;;;19.40;;
30681;SDS011;17439;48.092;11.842;2023-01-24T14:15:51;65.20;;;22.48;;
30681;SDS011;17439;48.092;11.842;2023-01-24T14:21:33;67.75;;;21.80;;
30681;SDS011;17439;48.092;11.842;2023-01-24T14:24:27;72.78;;;23.63;;
30681;SDS011;17439;48.092;11.842;2023-01-24T14:26:58;57.67;;;20.25;;
30681;SDS011;17439;48.092;11.842;2023-01-24T14:29:43;71.32;;;24.40;;
30681;SDS011;17439;48.092;11.842;2023-01-24T14:32:27;74.10;;;22.40;;
30681;SDS011;17439;48.092;11.842;2023-01-24T14:35:12;77.25;;;22.77;;
30681;SDS011;17439;48.092;11.842;2023-01-24T14:37:51;56.65;;;18.88;;
30681;SDS011;17439;48.092;11.842;2023-01-24T14:40:25;74.63;;;23.25;;
30681;SDS011;17439;48.092;11.842;2023-01-24T14:43:02;80.00;;;26.42;;
30681;SDS011;17439;48.092;11.842;2023-01-24T14:45:31;75.35;;;25.13;;
30681;SDS011;17439;48.092;11.842;2023-01-24T14:47:59;76.97;;;23.92;;
30681;SDS011;17439;48.092;11.842;2023-01-24T14:50:31;56.72;;;18.85;;
30681;SDS011;17439;48.092;11.842;2023-01-24T14:53:00;86.97;;;26.20;;
30681;SDS011;17439;48.092;11.842;2023-01-24T14:57:57;70.60;;;23.20;;
30681;SDS011;17439;48.092;11.842;2023-01-24T15:00:39;64.45;;;22.27;;
30681;SDS011;17439;48.092;11.842;2023-01-24T15:03:06;56.33;;;18.85;;
30681;SDS011;17439;48.092;11.842;2023-01-24T15:05:34;84.95;;;26.65;;
30681;SDS011;17439;48.092;11.842;2023-01-24T15:08:04;70.15;;;23.10;;
30681;SDS011;17439;48.092;11.842;2023-01-24T15:13:04;73.18;;;22.65;;
30681;SDS011;17439;48.092;11.842;2023-01-24T15:15:34;67.60;;;21.83;;
30681;SDS011;17439;48.092;11.842;2023-01-24T15:18:03;80.43;;;24.20;;
30681;SDS011;17439;48.092;11.842;2023-01-24T15:20:32;68.53;;;22.73;;
30681;SDS011;17439;48.092;11.842;2023-01-24T15:23:00;78.38;;;23.15;;
30681;SDS011;17439;48.092;11.842;2023-01-24T15:25:31;76.63;;;23.67;;
30681;SDS011;17439;48.092;11.842;2023-01-24T15:28:11;72.07;;;23.17;;
30681;SDS011;17439;48.092;11.842;2023-01-24T15:30:57;75.25;;;22.13;;
30681;SDS011;17439;48.092;11.842;2023-01-24T15:33:46;97.15;;;30.17;;
30681;SDS011;17439;48.092;11.842;2023-01-24T15:36:29;71.65;;;21.48;;
30681;SDS011;17439;48.092;11.842;2023-01-24T15:38:58;66.85;;;22.60;;
30681;SDS011;17439;48.092;11.842;2023-01-24T15:41:27;71.22;;;22.23;;
30681;SDS011;17439;48.092;11.842;2023-01-24T15:46:44;51.97;;;16.42;;
30681;SDS011;17439;48.092;11.842;2023-01-24T15:49:19;56.42;;;18.40;;
30681;SDS011;17439;48.092;11.842;2023-01-24T15:54:36;67.07;;;21.17;;
30681;SDS011;17439;48.092;11.842;2023-01-24T15:57:05;89.88;;;26.33;;
30681;SDS011;17439;48.092;11.842;2023-01-24T15:59:43;76.78;;;22.85;;
30681;SDS011;17439;48.092;11.842;2023-01-24T16:02:12;69.18;;;23.30;;
30681;SDS011;17439;48.092;11.842;2023-01-24T16:04:40;72.10;;;22.42;;
30681;SDS011;17439;48.092;11.842;2023-01-24T16:07:07;84.70;;;25.40;;
30681;SDS011;17439;48.092;11.842;2023-01-24T16:09:33;84.97;;;27.42;;
30681;SDS011;17439;48.092;11.842;2023-01-24T16:12:00;60.22;;;20.05;;
30681;SDS011;17439;48.092;11.842;2023-01-24T16:14:27;70.53;;;23.35;;
30681;SDS011;17439;48.092;11.842;2023-01-24T16:16:55;63.58;;;20.40;;
30681;SDS011;17439;48.092;11.842;2023-01-24T16:19:24;81.03;;;26.02;;
30681;SDS011;17439;48.092;11.842;2023-01-24T16:21:51;72.23;;;23.93;;
30681;SDS011;17439;48.092;11.842;2023-01-24T16:24:18;72.18;;;22.27;;